Time;durP1;ratioP1;P1;durP2;ratioP2;P2;SDS_P1;SDS_P2;PMS_P1;PMS_P2;Temp;Humidity;BMP_temperature;BMP_pressure;BME280_temperature;BME280_humidity;BME280_pressure;Samples;Min_cycle;Max_cycle;Signal;HPM_P1;HPM_P2
2023/08/25 00:00:29;;;;;;;14.07;11.75;;;19.30;99.90;;;;;;5048866;28;20052;-67
2023/08/25 00:02:54;;;;;;;15.77;10.75;;;19.30;99.90;;;;;;5035980;28;20559;-67
2023/08/25 00:05:20;;;;;;;14.63;11.75;;;19.30;99.90;;;;;;5040554;28;20036;-67
2023/08/25 00:07:46;;;;;;;15.90;11.02;;;19.20;99.90;;;;;;5044673;28;20125;-67
2023/08/25 00:10:11;;;;;;;18.20;12.07;;;19.20;99.90;;;;;;5040281;28;20032;-67
2023/08/25 00:12:37;;;;;;;16.60;11.07;;;19.20;99.90;;;;;;5045646;28;20055;-67
2023/08/25 00:15:03;;;;;;;17.25;11.75;;;19.10;99.90;;;;;;5049433;28;20048;-67
2023/08/25 00:17:30;;;;;;;13.82;10.40;;;19.00;99.90;;;;;;5035640;28;20045;-68
2023/08/25 00:19:56;;;;;;;18.08;11.93;;;19.00;99.90;;;;;;5036286;28;20079;-67
2023/08/25 00:22:22;;;;;;;18.67;11.68;;;19.00;99.90;;;;;;5035184;28;20116;-67
2023/08/25 00:24:47;;;;;;;16.23;11.90;;;19.00;99.90;;;;;;5047840;28;20045;-67
2023/08/25 00:27:13;;;;;;;17.95;12.68;;;18.90;99.90;;;;;;5032299;28;20163;-67
2023/08/25 00:29:38;;;;;;;16.67;12.65;;;18.90;99.90;;;;;;5043279;28;20037;-67
2023/08/25 00:32:04;;;;;;;15.68;12.35;;;18.90;99.90;;;;;;5042892;28;20097;-67
2023/08/25 00:34:30;;;;;;;18.90;13.23;;;18.90;99.90;;;;;;5049448;28;20077;-67
2023/08/25 00:36:56;;;;;;;16.70;12.75;;;18.90;99.90;;;;;;5044412;28;20045;-67
2023/08/25 00:39:21;;;;;;;17.85;12.27;;;18.90;99.90;;;;;;5039932;28;20033;-67
2023/08/25 00:41:47;;;;;;;17.83;13.25;;;18.90;99.90;;;;;;5031576;28;20044;-67
2023/08/25 00:44:12;;;;;;;20.05;15.85;;;18.90;99.90;;;;;;5035295;28;20095;-67
2023/08/25 00:46:38;;;;;;;17.95;14.32;;;18.90;99.90;;;;;;5036876;28;20144;-67
2023/08/25 00:49:04;;;;;;;19.33;13.40;;;18.90;99.90;;;;;;5043740;28;20083;-67
2023/08/25 00:51:30;;;;;;;18.67;14.65;;;18.90;99.90;;;;;;5042399;28;20507;-70
2023/08/25 00:53:56;;;;;;;17.60;13.52;;;18.80;99.90;;;;;;5036171;28;20047;-67
2023/08/25 00:56:23;;;;;;;18.10;13.52;;;18.80;99.90;;;;;;5037014;28;20038;-68
2023/08/25 00:58:49;;;;;;;21.38;16.02;;;18.80;99.90;;;;;;5033854;28;20143;-67
2023/08/25 01:01:17;;;;;;;21.88;15.98;;;18.80;99.90;;;;;;5037753;28;20025;-67
2023/08/25 01:03:45;;;;;;;22.13;15.63;;;18.90;99.90;;;;;;5038233;28;20048;-68
2023/08/25 01:06:10;;;;;;;19.45;15.10;;;18.90;99.90;;;;;;5042517;28;20075;-68
2023/08/25 01:08:37;;;;;;;22.25;14.82;;;18.90;99.90;;;;;;5033650;28;20033;-67
2023/08/25 01:11:26;;;;;;;17.67;14.32;;;18.90;99.90;;;;;;5044675;28;20056;-68
2023/08/25 01:14:13;;;;;;;22.88;16.02;;;19.00;99.90;;;;;;5035480;28;20049;-68
2023/08/25 01:17:09;;;;;;;20.98;15.82;;;19.00;99.90;;;;;;5042139;28;20068;-68
2023/08/25 01:19:53;;;;;;;24.10;15.85;;;19.00;99.90;;;;;;5035288;28;20084;-68
2023/08/25 01:22:27;;;;;;;19.92;14.48;;;19.00;99.90;;;;;;5034681;28;20033;-67
2023/08/25 01:24:57;;;;;;;26.08;15.57;;;19.10;99.90;;;;;;5036731;28;20060;-67
2023/08/25 01:27:23;;;;;;;25.92;17.60;;;19.10;99.90;;;;;;5038960;28;20045;-68
2023/08/25 01:29:49;;;;;;;24.40;16.75;;;19.10;99.90;;;;;;5041508;28;20198;-67
2023/08/25 01:32:15;;;;;;;21.13;16.13;;;19.20;99.90;;;;;;5031344;28;20479;-67
2023/08/25 01:34:40;;;;;;;21.10;15.00;;;19.20;99.90;;;;;;5040806;28;20449;-68
2023/08/25 01:37:32;;;;;;;20.48;15.73;;;19.20;99.90;;;;;;5037206;28;20041;-68
2023/08/25 01:40:05;;;;;;;21.95;15.05;;;19.20;99.90;;;;;;5035694;28;20440;-67
2023/08/25 01:42:33;;;;;;;28.05;16.65;;;19.20;99.90;;;;;;5041492;28;20373;-68
2023/08/25 01:45:00;;;;;;;22.65;15.73;;;19.20;99.90;;;;;;5037246;28;20496;-68
2023/08/25 01:47:28;;;;;;;21.73;16.23;;;19.20;99.90;;;;;;5043734;28;20033;-67
2023/08/25 01:49:56;;;;;;;24.10;16.35;;;19.20;99.90;;;;;;5029383;28;20045;-67
2023/08/25 01:52:22;;;;;;;23.60;16.30;;;19.10;99.90;;;;;;5039341;28;20061;-68
2023/08/25 01:54:50;;;;;;;24.13;17.17;;;19.00;99.90;;;;;;5036847;28;20401;-67
2023/08/25 01:57:15;;;;;;;24.40;16.40;;;19.00;99.90;;;;;;5018568;28;20036;-67
2023/08/25 01:59:41;;;;;;;24.83;18.08;;;19.00;99.90;;;;;;5015410;28;20046;-67
2023/08/25 02:02:07;;;;;;;24.30;16.90;;;19.00;99.90;;;;;;5031338;28;20120;-68
2023/08/25 02:04:32;;;;;;;28.38;19.02;;;18.90;99.90;;;;;;5043469;28;20041;-69
2023/08/25 02:06:58;;;;;;;28.27;19.70;;;18.90;99.90;;;;;;5033980;28;20048;-67
2023/08/25 02:09:23;;;;;;;25.40;17.85;;;18.80;99.90;;;;;;5040260;28;20029;-68
2023/08/25 02:11:49;;;;;;;28.88;18.85;;;18.80;99.90;;;;;;5028913;28;20042;-67
2023/08/25 02:14:15;;;;;;;34.38;19.92;;;18.80;99.90;;;;;;5033743;28;20065;-68
2023/08/25 02:16:40;;;;;;;26.92;19.08;;;18.80;99.90;;;;;;5040973;28;20038;-68
2023/08/25 02:19:06;;;;;;;26.52;18.67;;;18.80;99.90;;;;;;5035216;28;20041;-68
2023/08/25 02:21:31;;;;;;;31.67;20.13;;;18.70;99.90;;;;;;5045492;28;20040;-68
2023/08/25 02:23:57;;;;;;;26.40;18.27;;;18.70;99.90;;;;;;5032998;28;20169;-67
2023/08/25 02:26:22;;;;;;;28.90;19.10;;;18.70;99.90;;;;;;5031525;28;20130;-67
2023/08/25 02:28:48;;;;;;;30.35;20.52;;;18.70;99.90;;;;;;5030353;28;20045;-67
2023/08/25 02:31:13;;;;;;;30.95;21.45;;;18.70;99.90;;;;;;5037959;28;20547;-67
2023/08/25 02:33:39;;;;;;;32.70;19.30;;;18.70;99.90;;;;;;5044108;28;20056;-67
2023/08/25 02:36:05;;;;;;;31.70;21.42;;;18.60;99.90;;;;;;5033782;28;20087;-67
2023/08/25 02:38:31;;;;;;;39.33;22.27;;;18.60;99.90;;;;;;5030984;28;20043;-67
2023/08/25 02:40:57;;;;;;;35.35;21.60;;;18.60;99.90;;;;;;5028557;28;20148;-68
2023/08/25 02:43:22;;;;;;;38.05;21.90;;;18.60;99.90;;;;;;5042454;28;20120;-67
2023/08/25 02:45:48;;;;;;;34.95;21.17;;;18.60;99.90;;;;;;5034896;28;20071;-67
2023/08/25 02:48:13;;;;;;;35.90;22.80;;;18.60;99.90;;;;;;5034519;28;20044;-67
2023/08/25 02:50:39;;;;;;;38.10;23.63;;;18.50;99.90;;;;;;5034096;28;20645;-67
2023/08/25 02:53:05;;;;;;;37.25;22.10;;;18.50;99.90;;;;;;5039915;28;20045;-67
2023/08/25 02:55:30;;;;;;;39.58;23.25;;;18.50;99.90;;;;;;5032221;28;20083;-67
2023/08/25 02:57:56;;;;;;;37.53;23.08;;;18.50;99.90;;;;;;5034568;28;20490;-68
2023/08/25 03:00:25;;;;;;;36.92;23.08;;;18.50;99.90;;;;;;5033030;28;20033;-67
2023/08/25 03:02:52;;;;;;;41.83;25.75;;;18.50;99.90;;;;;;5033921;28;20718;-67
2023/08/25 03:05:18;;;;;;;39.10;24.55;;;18.50;99.90;;;;;;5033543;28;20508;-67
2023/08/25 03:07:44;;;;;;;43.83;25.38;;;18.40;99.90;;;;;;5034125;28;20120;-67
2023/08/25 03:10:10;;;;;;;41.90;26.55;;;18.40;99.90;;;;;;5041355;28;20399;-67
2023/08/25 03:12:37;;;;;;;48.67;27.45;;;18.40;99.90;;;;;;5036134;28;20051;-68
2023/08/25 03:15:02;;;;;;;42.50;25.30;;;18.40;99.90;;;;;;5030590;28;20079;-68
2023/08/25 03:17:28;;;;;;;41.50;25.23;;;18.40;99.90;;;;;;5034279;28;20069;-67
2023/08/25 03:19:54;;;;;;;41.30;25.85;;;18.40;99.90;;;;;;5039179;28;20124;-68
2023/08/25 03:22:19;;;;;;;44.28;25.98;;;18.40;99.90;;;;;;5042648;28;20519;-68
2023/08/25 03:24:45;;;;;;;44.03;25.00;;;18.30;99.90;;;;;;5033696;28;20394;-68
2023/08/25 03:27:11;;;;;;;45.45;27.27;;;18.30;99.90;;;;;;5046549;28;20042;-68
2023/08/25 03:29:36;;;;;;;47.08;26.20;;;18.30;99.90;;;;;;5045891;28;20033;-67
2023/08/25 03:32:02;;;;;;;45.80;26.35;;;18.30;99.90;;;;;;5028855;28;20373;-68
2023/08/25 03:34:29;;;;;;;38.80;24.42;;;18.30;99.90;;;;;;5036181;28;20065;-68
2023/08/25 03:36:55;;;;;;;39.60;24.83;;;18.20;99.90;;;;;;5047390;28;20040;-67
2023/08/25 03:39:21;;;;;;;42.92;26.63;;;18.20;99.90;;;;;;5039373;28;20038;-68
2023/08/25 03:41:46;;;;;;;44.75;27.10;;;18.20;99.90;;;;;;5036609;28;20385;-67
2023/08/25 03:44:13;;;;;;;43.30;27.05;;;18.20;99.90;;;;;;5030516;28;20067;-68
2023/08/25 03:46:39;;;;;;;40.22;24.77;;;18.20;99.90;;;;;;5040200;28;20037;-67
2023/08/25 03:49:06;;;;;;;48.22;28.10;;;18.20;99.90;;;;;;5043429;28;20033;-68
2023/08/25 03:51:31;;;;;;;51.53;28.02;;;18.20;99.90;;;;;;5037154;28;20049;-67
2023/08/25 03:53:57;;;;;;;48.28;27.35;;;18.20;99.90;;;;;;5040195;28;20045;-68
2023/08/25 03:56:24;;;;;;;47.28;26.92;;;18.10;99.90;;;;;;5023883;28;20370;-68
2023/08/25 03:58:49;;;;;;;43.22;26.52;;;18.10;99.90;;;;;;5038323;28;20049;-67
2023/08/25 04:01:15;;;;;;;42.95;25.75;;;18.10;99.90;;;;;;5044629;28;20103;-66
2023/08/25 04:03:40;;;;;;;43.15;26.83;;;18.00;99.90;;;;;;5036465;28;20132;-66
2023/08/25 04:06:06;;;;;;;48.88;26.48;;;18.10;99.90;;;;;;5050767;28;20399;-66
2023/08/25 04:08:32;;;;;;;45.13;27.42;;;18.00;99.90;;;;;;5045381;28;20040;-65
2023/08/25 04:10:58;;;;;;;43.55;26.08;;;18.00;99.90;;;;;;5033127;28;20068;-66
2023/08/25 04:13:24;;;;;;;47.38;27.33;;;18.00;99.90;;;;;;5042303;28;20078;-65
2023/08/25 04:15:57;;;;;;;45.03;27.02;;;18.00;99.90;;;;;;5041438;28;20033;-67
2023/08/25 04:18:23;;;;;;;49.03;26.55;;;18.00;99.90;;;;;;5035079;28;20061;-66
2023/08/25 04:20:48;;;;;;;46.83;27.90;;;18.00;99.90;;;;;;5035607;28;20140;-66
2023/08/25 04:23:14;;;;;;;49.03;27.88;;;18.10;99.90;;;;;;5046672;28;20132;-65
2023/08/25 04:25:39;;;;;;;47.80;26.85;;;18.10;99.90;;;;;;5038031;28;20033;-66
2023/08/25 04:28:05;;;;;;;48.60;27.63;;;18.10;99.90;;;;;;5035538;28;20065;-67
2023/08/25 04:30:31;;;;;;;48.97;27.17;;;18.20;99.90;;;;;;5026433;28;20052;-66
2023/08/25 04:32:56;;;;;;;52.47;28.38;;;18.10;99.90;;;;;;5046669;28;20427;-65
2023/08/25 04:35:22;;;;;;;53.70;29.35;;;18.20;99.90;;;;;;5039374;28;20182;-66
2023/08/25 04:37:47;;;;;;;48.90;28.23;;;18.30;99.90;;;;;;5041820;28;20045;-66
2023/08/25 04:40:17;;;;;;;53.47;30.00;;;18.30;99.90;;;;;;5029548;28;20057;-66
2023/08/25 04:42:43;;;;;;;57.70;29.87;;;18.40;99.90;;;;;;5031242;28;20041;-67
2023/08/25 04:45:14;;;;;;;54.33;29.13;;;18.40;99.90;;;;;;5033438;28;20037;-66
2023/08/25 04:47:40;;;;;;;56.40;30.38;;;18.50;99.90;;;;;;5039033;28;20586;-66
2023/08/25 04:50:07;;;;;;;62.72;32.63;;;18.50;99.90;;;;;;5047660;28;20044;-66
2023/08/25 04:52:36;;;;;;;61.17;30.38;;;18.60;99.90;;;;;;5047912;28;20113;-66
2023/08/25 04:55:05;;;;;;;68.28;34.67;;;18.60;99.90;;;;;;5041800;28;20037;-67
2023/08/25 04:57:31;;;;;;;66.32;34.55;;;18.60;99.90;;;;;;5021728;28;20127;-66
2023/08/25 04:59:57;;;;;;;69.78;32.65;;;18.60;99.90;;;;;;5028619;28;20120;-66
2023/08/25 05:02:23;;;;;;;70.00;34.33;;;18.70;99.90;;;;;;5037880;28;20069;-66
2023/08/25 05:04:49;;;;;;;61.38;32.38;;;18.70;99.90;;;;;;5043410;28;20040;-66
2023/08/25 05:07:15;;;;;;;66.18;33.05;;;18.70;99.90;;;;;;5038031;28;20036;-66
2023/08/25 05:09:41;;;;;;;64.43;32.33;;;18.80;99.90;;;;;;5039232;28;20090;-66
2023/08/25 05:12:07;;;;;;;65.95;33.22;;;18.80;99.90;;;;;;5031802;28;20487;-65
2023/08/25 05:14:33;;;;;;;65.55;32.65;;;18.80;99.90;;;;;;5043682;28;20040;-66
2023/08/25 05:16:59;;;;;;;64.35;32.28;;;18.80;99.90;;;;;;5031355;28;20037;-65
2023/08/25 05:19:24;;;;;;;64.30;32.03;;;18.90;99.90;;;;;;5029196;28;20037;-66
2023/08/25 05:21:50;;;;;;;63.40;32.38;;;18.90;99.90;;;;;;5046713;28;20116;-66
2023/08/25 05:24:19;;;;;;;64.35;32.92;;;18.90;99.90;;;;;;5046658;28;20041;-65
2023/08/25 05:26:52;;;;;;;56.80;30.08;;;18.90;99.90;;;;;;5024085;28;20045;-66
2023/08/25 05:29:22;;;;;;;56.00;29.88;;;19.00;99.90;;;;;;5028085;28;20057;-66
2023/08/25 05:31:48;;;;;;;60.67;32.08;;;19.00;99.90;;;;;;5037740;28;20037;-67
2023/08/25 05:34:15;;;;;;;55.13;30.27;;;19.00;99.90;;;;;;5034155;28;20098;-65
2023/08/25 05:36:41;;;;;;;55.75;31.35;;;19.00;99.90;;;;;;5035492;28;20079;-65
2023/08/25 05:39:06;;;;;;;51.60;30.00;;;19.10;99.90;;;;;;5027309;28;20028;-66
2023/08/25 05:41:32;;;;;;;63.40;32.30;;;19.10;99.90;;;;;;5036280;28;20065;-66
2023/08/25 05:43:58;;;;;;;51.25;30.05;;;19.20;99.90;;;;;;5037451;28;20124;-66
2023/08/25 05:46:24;;;;;;;48.50;29.52;;;19.30;99.90;;;;;;5045528;28;20694;-65
2023/08/25 05:48:50;;;;;;;51.92;30.23;;;19.30;99.90;;;;;;5034157;28;20042;-65
2023/08/25 05:51:16;;;;;;;53.00;30.55;;;19.40;99.90;;;;;;5020541;28;20061;-66
2023/08/25 05:53:41;;;;;;;54.13;30.58;;;19.40;99.90;;;;;;5041684;28;20137;-65
2023/08/25 05:56:07;;;;;;;55.40;30.70;;;19.40;99.90;;;;;;5040747;28;20578;-65
2023/08/25 05:58:32;;;;;;;56.75;30.05;;;19.40;99.90;;;;;;5040350;28;20041;-65
2023/08/25 06:00:58;;;;;;;58.05;31.55;;;19.40;99.90;;;;;;5028298;28;20080;-65
2023/08/25 06:03:25;;;;;;;54.03;30.58;;;19.40;99.90;;;;;;5034192;28;20033;-65
2023/08/25 06:05:53;;;;;;;51.85;29.88;;;19.40;99.90;;;;;;5036522;28;20072;-66
2023/08/25 06:08:20;;;;;;;53.08;28.85;;;19.40;99.90;;;;;;5037848;28;20120;-66
2023/08/25 06:10:46;;;;;;;56.08;30.85;;;19.40;99.90;;;;;;5028278;28;20063;-66
2023/08/25 06:13:13;;;;;;;56.55;29.95;;;19.50;99.90;;;;;;5036866;28;20466;-68
2023/08/25 06:15:38;;;;;;;51.50;30.50;;;19.50;99.90;;;;;;5034084;28;20042;-67
2023/08/25 06:18:04;;;;;;;52.92;30.90;;;19.60;99.90;;;;;;5030199;28;20037;-66
2023/08/25 06:20:33;;;;;;;52.63;29.58;;;19.60;99.90;;;;;;5034899;28;20032;-66
2023/08/25 06:22:58;;;;;;;57.60;32.15;;;19.60;99.90;;;;;;5037018;28;20033;-66
2023/08/25 06:25:24;;;;;;;59.30;31.77;;;19.70;99.90;;;;;;5033355;28;20137;-66
2023/08/25 06:27:50;;;;;;;53.33;29.30;;;19.70;99.90;;;;;;5041671;28;20041;-66
2023/08/25 06:30:16;;;;;;;52.53;30.75;;;19.80;99.90;;;;;;5033085;28;20491;-66
2023/08/25 06:32:42;;;;;;;53.08;29.23;;;19.90;99.90;;;;;;5026796;28;20040;-66
2023/08/25 06:35:08;;;;;;;50.75;29.42;;;20.10;99.90;;;;;;5032895;28;20040;-65
2023/08/25 06:37:34;;;;;;;50.65;28.73;;;20.20;99.90;;;;;;5039364;28;20048;-66
2023/08/25 06:39:59;;;;;;;48.65;29.15;;;20.30;99.90;;;;;;5037085;28;20075;-66
2023/08/25 06:42:25;;;;;;;43.28;26.95;;;20.50;99.90;;;;;;5042814;28;20040;-66
2023/08/25 06:44:50;;;;;;;47.92;28.58;;;20.60;99.90;;;;;;5046518;28;20037;-67
2023/08/25 06:47:16;;;;;;;47.80;27.83;;;20.50;99.90;;;;;;5039218;28;20224;-67
2023/08/25 06:49:41;;;;;;;43.38;27.25;;;20.60;99.90;;;;;;5029926;28;20048;-66
2023/08/25 06:52:07;;;;;;;41.85;26.98;;;20.70;99.90;;;;;;5045865;28;20063;-66
2023/08/25 06:54:33;;;;;;;41.33;26.73;;;20.80;99.90;;;;;;5033929;28;20104;-66
2023/08/25 06:56:58;;;;;;;41.38;25.52;;;20.70;99.90;;;;;;5042888;28;20040;-66
2023/08/25 06:59:24;;;;;;;43.38;26.52;;;20.80;99.90;;;;;;5006536;28;20436;-66
2023/08/25 07:01:49;;;;;;;41.17;25.75;;;20.90;99.90;;;;;;5030508;28;20045;-66
2023/08/25 07:04:15;;;;;;;42.75;26.85;;;21.00;99.90;;;;;;5033491;28;20064;-66
2023/08/25 07:06:41;;;;;;;44.33;25.50;;;21.00;99.90;;;;;;5038489;28;20401;-66
2023/08/25 07:09:06;;;;;;;41.55;24.65;;;21.00;99.90;;;;;;5016944;28;20499;-67
2023/08/25 07:11:32;;;;;;;40.63;24.58;;;21.10;99.90;;;;;;5027854;28;20120;-66
2023/08/25 07:13:59;;;;;;;45.50;27.00;;;21.10;99.90;;;;;;5040731;28;20953;-68
2023/08/25 07:16:25;;;;;;;43.10;25.77;;;21.20;99.90;;;;;;5045371;28;20044;-67
2023/08/25 07:18:51;;;;;;;41.20;25.48;;;21.20;99.90;;;;;;5036219;28;20729;-66
2023/08/25 07:21:16;;;;;;;41.78;26.20;;;21.30;99.90;;;;;;5030527;28;20034;-67
2023/08/25 07:23:42;;;;;;;41.50;24.52;;;21.40;99.90;;;;;;5046026;28;20090;-66
2023/08/25 07:26:08;;;;;;;37.47;24.85;;;21.50;99.90;;;;;;5050232;28;20044;-66
2023/08/25 07:28:34;;;;;;;34.50;22.60;;;21.80;99.90;;;;;;5035501;28;20445;-67
2023/08/25 07:31:00;;;;;;;41.30;22.48;;;22.00;99.90;;;;;;5043080;28;20033;-66
2023/08/25 07:33:26;;;;;;;37.67;22.50;;;22.10;99.90;;;;;;5045855;28;20068;-67
2023/08/25 07:35:52;;;;;;;31.77;21.25;;;22.40;99.90;;;;;;5037887;28;20083;-68
2023/08/25 07:38:17;;;;;;;32.22;20.75;;;22.70;99.90;;;;;;5055533;28;20191;-67
2023/08/25 07:40:43;;;;;;;40.53;23.73;;;23.00;99.90;;;;;;5040655;28;20480;-68
2023/08/25 07:43:08;;;;;;;29.08;19.52;;;23.00;99.90;;;;;;5043790;28;20094;-67
2023/08/25 07:45:35;;;;;;;33.88;20.73;;;22.90;99.90;;;;;;5026962;28;20389;-66
2023/08/25 07:48:01;;;;;;;28.45;20.38;;;22.90;99.90;;;;;;5029663;28;20046;-67
2023/08/25 07:50:29;;;;;;;31.35;20.83;;;22.90;99.90;;;;;;5028946;28;20037;-67
2023/08/25 07:52:54;;;;;;;33.08;20.02;;;22.90;99.90;;;;;;5041812;28;20410;-67
2023/08/25 07:55:20;;;;;;;34.78;22.23;;;22.80;99.90;;;;;;5034952;28;20155;-67
2023/08/25 07:57:46;;;;;;;33.28;20.63;;;22.80;99.80;;;;;;5014543;28;20047;-67
2023/08/25 08:00:15;;;;;;;32.67;22.38;;;22.60;99.50;;;;;;5044861;28;20033;-67
2023/08/25 08:02:46;;;;;;;31.15;21.20;;;22.50;99.10;;;;;;5039363;28;20469;-66
2023/08/25 08:05:13;;;;;;;32.85;20.05;;;22.50;99.00;;;;;;5041775;28;20052;-67
2023/08/25 08:07:39;;;;;;;31.23;19.83;;;22.50;99.40;;;;;;5019562;28;20073;-67
2023/08/25 08:10:05;;;;;;;34.13;22.80;;;22.50;99.30;;;;;;5041665;28;20100;-66
2023/08/25 08:12:31;;;;;;;33.38;20.55;;;22.40;99.20;;;;;;5042385;28;20126;-66
2023/08/25 08:14:57;;;;;;;35.90;21.15;;;22.40;99.10;;;;;;5033718;28;20098;-67
2023/08/25 08:17:23;;;;;;;34.63;20.65;;;22.30;99.00;;;;;;5047829;28;20108;-67
2023/08/25 08:19:48;;;;;;;33.55;20.33;;;22.30;99.00;;;;;;5052313;28;20033;-66
2023/08/25 08:22:14;;;;;;;31.10;20.60;;;22.30;99.20;;;;;;5045467;28;20563;-67
2023/08/25 08:24:45;;;;;;;36.28;22.98;;;22.40;99.30;;;;;;5037478;28;20336;-67
2023/08/25 08:27:12;;;;;;;35.67;21.15;;;22.30;99.00;;;;;;5032982;28;20041;-67
2023/08/25 08:29:38;;;;;;;37.97;23.48;;;22.30;98.90;;;;;;5028948;28;20073;-67
2023/08/25 08:32:05;;;;;;;36.08;21.88;;;22.20;98.80;;;;;;5034350;28;20063;-67
2023/08/25 08:34:31;;;;;;;38.80;24.33;;;22.20;98.80;;;;;;5032681;28;20038;-67
2023/08/25 08:36:56;;;;;;;33.60;21.27;;;22.20;98.90;;;;;;5036389;28;20201;-67
2023/08/25 08:39:22;;;;;;;34.45;22.00;;;22.20;98.80;;;;;;5041175;28;20039;-67
2023/08/25 08:41:48;;;;;;;31.30;20.20;;;22.10;99.00;;;;;;5040863;28;20412;-67
2023/08/25 08:44:18;;;;;;;30.75;20.42;;;22.00;99.10;;;;;;5047182;28;20455;-67
2023/08/25 08:46:45;;;;;;;36.47;19.23;;;21.90;98.90;;;;;;5045129;28;20136;-66
2023/08/25 08:49:12;;;;;;;34.13;18.88;;;21.90;99.00;;;;;;5032145;28;20041;-67
2023/08/25 08:51:40;;;;;;;28.65;18.08;;;21.90;99.00;;;;;;5050921;28;20124;-66
2023/08/25 08:54:07;;;;;;;34.03;17.92;;;21.90;99.00;;;;;;5032444;28;20086;-67
2023/08/25 08:56:34;;;;;;;28.10;17.70;;;21.90;98.90;;;;;;5042571;28;20042;-66
2023/08/25 08:59:00;;;;;;;30.33;18.48;;;21.90;98.80;;;;;;5026689;28;20092;-67
2023/08/25 09:01:26;;;;;;;33.67;17.58;;;22.00;98.40;;;;;;5043837;28;20041;-67
2023/08/25 09:03:53;;;;;;;28.52;17.00;;;22.00;98.10;;;;;;5036050;28;20077;-67
2023/08/25 09:06:20;;;;;;;31.23;17.65;;;21.90;98.50;;;;;;5031291;28;20663;-67
2023/08/25 09:08:49;;;;;;;28.35;17.35;;;21.90;97.90;;;;;;5043324;28;20143;-67
2023/08/25 09:11:17;;;;;;;29.80;16.93;;;21.90;97.70;;;;;;5037260;28;20487;-67
2023/08/25 09:13:57;;;;;;;35.50;19.00;;;21.90;97.70;;;;;;5048515;28;20116;-66
2023/08/25 09:16:23;;;;;;;32.95;16.10;;;21.90;97.20;;;;;;5020016;28;20681;-67
2023/08/25 09:18:49;;;;;;;31.55;17.88;;;21.80;97.60;;;;;;5041832;28;20195;-67
2023/08/25 09:21:20;;;;;;;31.00;18.10;;;21.80;98.00;;;;;;5040383;28;20389;-67
2023/08/25 09:24:01;;;;;;;30.92;17.05;;;21.70;98.10;;;;;;5042668;28;20055;-66
2023/08/25 09:26:28;;;;;;;;;;;21.60;99.30;;;;;;5041998;28;20033;-67
2023/08/25 09:28:55;;;;;;;37.65;20.15;;;21.20;99.90;;;;;;5037992;28;19927;-67
2023/08/25 09:31:26;;;;;;;34.28;19.85;;;21.00;99.90;;;;;;5031670;28;20050;-67
2023/08/25 09:33:59;;;;;;;34.67;20.85;;;20.80;99.90;;;;;;5033527;28;20068;-66
2023/08/25 09:36:25;;;;;;;32.58;20.08;;;20.70;99.90;;;;;;5031563;28;20561;-67
2023/08/25 09:38:52;;;;;;;36.08;21.52;;;20.60;99.90;;;;;;5040668;28;20076;-67
2023/08/25 09:41:25;;;;;;;35.80;22.50;;;20.50;99.90;;;;;;5032027;28;20047;-68
2023/08/25 09:43:58;;;;;;;35.45;21.98;;;20.40;99.90;;;;;;5044899;28;20048;-68
2023/08/25 09:46:31;;;;;;;39.60;23.40;;;20.40;99.90;;;;;;5033970;28;20037;-67
2023/08/25 09:49:04;;;;;;;37.97;23.33;;;20.40;99.90;;;;;;5021245;28;20174;-67
2023/08/25 09:51:45;;;;;;;40.00;24.40;;;20.30;99.90;;;;;;5030554;28;20140;-68
2023/08/25 09:54:12;;;;;;;34.42;21.52;;;20.20;99.90;;;;;;5037867;28;20077;-68
2023/08/25 09:56:39;;;;;;;42.33;23.65;;;20.20;99.90;;;;;;5033775;28;20048;-67
2023/08/25 09:59:06;;;;;;;36.72;22.13;;;20.10;99.90;;;;;;5034484;28;20495;-65
2023/08/25 10:01:36;;;;;;;37.92;21.83;;;20.00;99.90;;;;;;5048822;28;20110;-66
2023/08/25 10:04:03;;;;;;;39.28;23.17;;;20.00;99.90;;;;;;5040083;28;20101;-66
2023/08/25 10:06:33;;;;;;;39.53;23.80;;;20.00;99.90;;;;;;5049819;28;20412;-67
2023/08/25 10:08:59;;;;;;;44.08;25.95;;;20.00;99.90;;;;;;5042090;28;20056;-67
2023/08/25 10:11:40;;;;;;;41.60;23.98;;;20.00;99.90;;;;;;5036650;28;20084;-68
2023/08/25 10:14:07;;;;;;;;;;;20.10;99.90;;;;;;5009191;28;20045;-67
2023/08/25 10:16:39;;;;;;;44.50;26.48;;;20.20;99.90;;;;;;5029263;28;20347;-67
2023/08/25 10:19:09;;;;;;;41.20;25.95;;;20.30;99.90;;;;;;5034068;28;20056;-68
2023/08/25 10:21:36;;;;;;;42.63;26.05;;;20.40;99.90;;;;;;5032733;28;20038;-66
2023/08/25 10:24:02;;;;;;;39.33;24.88;;;20.50;99.90;;;;;;5029556;28;20143;-68
2023/08/25 10:26:29;;;;;;;43.45;25.95;;;20.50;99.90;;;;;;5039052;28;20045;-68
2023/08/25 10:28:55;;;;;;;43.90;27.02;;;20.60;99.90;;;;;;5047033;28;20084;-69
2023/08/25 10:31:21;;;;;;;48.72;27.95;;;20.70;99.90;;;;;;5048534;28;20087;-67
2023/08/25 10:33:51;;;;;;;39.65;23.55;;;20.90;99.90;;;;;;5043829;28;20060;-68
2023/08/25 10:36:21;;;;;;;37.85;22.98;;;20.90;99.90;;;;;;5036072;28;20041;-72
2023/08/25 10:38:59;;;;;;;40.05;23.83;;;20.70;99.90;;;;;;5028251;28;20041;-68
2023/08/25 10:41:25;;;;;;;40.83;24.20;;;20.80;99.90;;;;;;5028158;28;20377;-67
2023/08/25 10:43:54;;;;;;;40.28;25.75;;;21.10;99.90;;;;;;5018574;28;20049;-66
2023/08/25 10:46:22;;;;;;;37.65;25.42;;;21.20;99.90;;;;;;5037500;28;20102;-68
2023/08/25 10:49:00;;;;;;;38.80;26.05;;;21.20;99.90;;;;;;5042249;28;20385;-66
2023/08/25 10:51:27;;;;;;;36.38;24.15;;;21.00;99.90;;;;;;5039440;28;20060;-66
2023/08/25 10:53:53;;;;;;;37.65;24.10;;;20.90;99.90;;;;;;5039136;28;20044;-66
2023/08/25 10:56:21;;;;;;;35.03;22.67;;;20.80;99.90;;;;;;5037672;28;20028;-66
2023/08/25 10:59:09;;;;;;;36.17;20.73;;;20.80;99.90;;;;;;5039407;28;20083;-65
2023/08/25 11:01:38;;;;;;;29.67;19.15;;;20.70;99.90;;;;;;5041045;28;20390;-66
2023/08/25 11:04:13;;;;;;;34.33;21.27;;;20.70;99.90;;;;;;5044162;28;20037;-65
2023/08/25 11:06:53;;;;;;;34.83;20.38;;;20.80;99.90;;;;;;5011766;28;20045;-66
2023/08/25 11:09:26;;;;;;;40.85;24.33;;;20.90;99.90;;;;;;5037084;28;20549;-66
2023/08/25 11:12:00;;;;;;;39.10;23.85;;;21.00;99.90;;;;;;5039724;28;20041;-66
2023/08/25 11:14:30;;;;;;;39.17;23.65;;;21.20;99.90;;;;;;5012390;28;20049;-65
2023/08/25 11:16:56;;;;;;;;;;;21.50;99.90;;;;;;5029604;28;20037;-65
2023/08/25 11:19:24;;;;;;;33.30;20.70;;;21.70;99.90;;;;;;5032590;28;19974;-66
2023/08/25 11:21:57;;;;;;;34.10;20.50;;;21.90;99.90;;;;;;5050734;28;20040;-65
2023/08/25 11:24:23;;;;;;;33.42;22.30;;;22.20;99.90;;;;;;5035750;28;20092;-66
2023/08/25 11:26:49;;;;;;;33.05;21.30;;;22.40;99.90;;;;;;5045514;28;20048;-66
2023/08/25 11:29:14;;;;;;;35.97;23.10;;;22.50;99.90;;;;;;5032042;28;20339;-66
2023/08/25 11:31:43;;;;;;;34.30;21.70;;;22.40;99.90;;;;;;5032094;28;20037;-67
2023/08/25 11:34:09;;;;;;;35.42;22.15;;;22.50;99.90;;;;;;5043087;28;20067;-67
2023/08/25 11:36:36;;;;;;;35.22;20.60;;;22.60;99.90;;;;;;5047678;28;20045;-67
2023/08/25 11:39:01;;;;;;;33.08;20.38;;;22.50;99.90;;;;;;5045498;28;20033;-67
2023/08/25 11:41:28;;;;;;;30.80;19.58;;;22.40;99.90;;;;;;5048665;28;20041;-67
2023/08/25 11:43:55;;;;;;;30.17;18.27;;;22.40;99.90;;;;;;5048080;28;20147;-67
2023/08/25 11:46:20;;;;;;;28.73;19.70;;;22.50;99.90;;;;;;5053912;28;20045;-68
2023/08/25 11:48:51;;;;;;;29.35;18.60;;;22.50;99.90;;;;;;5050499;28;20072;-68
2023/08/25 11:51:18;;;;;;;29.77;19.77;;;22.60;99.90;;;;;;5039001;28;20045;-69
2023/08/25 11:53:46;;;;;;;31.95;19.85;;;22.80;99.90;;;;;;5044131;28;20175;-66
2023/08/25 11:56:16;;;;;;;30.65;18.58;;;23.00;99.90;;;;;;5050916;28;20609;-67
2023/08/25 11:58:42;;;;;;;30.45;18.20;;;23.20;99.90;;;;;;5032436;28;20087;-68
2023/08/25 12:01:11;;;;;;;24.55;17.45;;;23.30;99.90;;;;;;5041387;28;20037;-67
2023/08/25 12:03:38;;;;;;;24.88;16.23;;;23.20;99.90;;;;;;5042095;28;20038;-68
2023/08/25 12:06:08;;;;;;;24.90;15.63;;;23.20;99.80;;;;;;5040245;28;20110;-67
2023/08/25 12:08:34;;;;;;;;;;;23.10;99.60;;;;;;5051638;28;20058;-65
2023/08/25 12:11:00;;;;;;;22.63;14.23;;;22.80;99.00;;;;;;5026747;28;19916;-67
2023/08/25 12:13:29;;;;;;;21.55;14.20;;;22.70;99.90;;;;;;5050801;28;20044;-68
2023/08/25 12:15:55;;;;;;;20.33;13.70;;;22.50;99.90;;;;;;5036884;28;20033;-67
2023/08/25 12:18:22;;;;;;;20.08;13.77;;;22.40;99.90;;;;;;5051340;28;20045;-66
2023/08/25 12:20:48;;;;;;;20.85;14.23;;;22.40;99.90;;;;;;5035975;28;20069;-66
2023/08/25 12:23:14;;;;;;;21.50;13.88;;;22.30;99.90;;;;;;5049148;28;20120;-66
2023/08/25 12:25:43;;;;;;;29.00;16.45;;;22.30;99.90;;;;;;5044411;28;20156;-68
2023/08/25 12:28:10;;;;;;;20.93;14.23;;;22.20;99.70;;;;;;5044390;28;20045;-70